createdAt,value
2019-03-31T00:02:25.139Z,50.40
2019-03-31T00:04:54.014Z,50.60
2019-03-31T00:07:22.847Z,50.50
2019-03-31T00:09:51.692Z,50.90
2019-03-31T00:12:20.512Z,51.00
2019-03-31T00:14:49.388Z,50.90
2019-03-31T00:17:18.218Z,51.30
2019-03-31T00:19:47.090Z,51.20
2019-03-31T00:22:15.940Z,51.50
2019-03-31T00:24:44.757Z,51.70
2019-03-31T00:27:13.631Z,51.60
2019-03-31T00:29:42.440Z,52.00
2019-03-31T00:32:11.301Z,51.90
2019-03-31T00:34:40.130Z,51.40
2019-03-31T00:37:08.997Z,51.20
2019-03-31T00:39:37.865Z,51.40
2019-03-31T00:42:06.752Z,51.50
2019-03-31T00:44:35.582Z,51.50
2019-03-31T00:47:04.467Z,51.70
2019-03-31T00:49:33.293Z,52.10
2019-03-31T00:52:02.154Z,51.30
2019-03-31T00:54:31.016Z,51.40
2019-03-31T00:56:59.840Z,51.40
2019-03-31T00:59:28.697Z,51.30
2019-03-31T01:01:59.093Z,51.30
2019-03-31T01:04:30.443Z,51.40
2019-03-31T01:06:59.282Z,51.60
2019-03-31T01:09:30.945Z,51.70
2019-03-31T01:11:59.980Z,52.30
2019-03-31T01:14:29.848Z,51.90
2019-03-31T01:17:00.867Z,52.20
2019-03-31T01:19:30.240Z,52.30
2019-03-31T01:21:59.066Z,52.30
2019-03-31T01:24:27.929Z,52.60
2019-03-31T01:26:56.757Z,52.70
2019-03-31T01:29:25.631Z,52.90
2019-03-31T01:31:56.350Z,52.90
2019-03-31T01:34:25.221Z,52.40
2019-03-31T01:36:54.089Z,52.00
2019-03-31T01:39:24.490Z,51.90
2019-03-31T01:41:53.352Z,51.30
2019-03-31T01:44:22.167Z,51.20
2019-03-31T01:46:51.026Z,51.00
2019-03-31T01:49:19.857Z,50.90
2019-03-31T01:51:48.704Z,51.00
2019-03-31T01:54:17.527Z,51.30
2019-03-31T01:56:46.400Z,51.80
2019-03-31T01:59:16.015Z,52.10
2019-03-31T02:01:44.903Z,52.50
2019-03-31T02:04:13.823Z,52.70
2019-03-31T02:06:46.171Z,52.70
2019-03-31T02:09:19.167Z,52.50
2019-03-31T02:11:51.478Z,52.20
2019-03-31T02:14:23.654Z,52.10
2019-03-31T02:16:53.935Z,52.10
2019-03-31T02:19:29.763Z,52.00
2019-03-31T02:22:02.110Z,52.10
2019-03-31T02:24:34.307Z,52.90
2019-03-31T02:27:05.347Z,53.20
2019-03-31T02:29:37.555Z,54.10
2019-03-31T02:32:22.495Z,54.00
2019-03-31T02:34:41.676Z,54.90
2019-03-31T02:37:13.728Z,54.70
2019-03-31T02:39:46.894Z,55.70
2019-03-31T02:42:18.978Z,55.80
2019-03-31T02:44:50.922Z,55.20
2019-03-31T02:47:26.550Z,56.20
2019-03-31T02:49:58.454Z,56.70
2019-03-31T02:52:30.857Z,57.10
2019-03-31T02:55:03.175Z,57.40
2019-03-31T02:57:35.688Z,57.00
2019-03-31T03:00:08.658Z,56.60
2019-03-31T03:02:42.764Z,56.50
2019-03-31T03:05:19.527Z,56.30
2019-03-31T03:07:50.133Z,56.30
2019-03-31T03:10:23.679Z,56.50
2019-03-31T03:12:56.166Z,57.70
2019-03-31T03:15:31.446Z,57.10
2019-03-31T03:18:03.733Z,57.00
2019-03-31T03:20:36.141Z,55.80
2019-03-31T03:23:09.439Z,55.70
2019-03-31T03:25:54.895Z,56.60
2019-03-31T03:28:15.968Z,56.70
2019-03-31T03:30:48.499Z,58.20
2019-03-31T03:33:21.094Z,59.00
2019-03-31T03:35:54.483Z,60.00
2019-03-31T03:38:27.122Z,57.60
2019-03-31T03:41:00.635Z,58.60
2019-03-31T03:43:33.015Z,57.10
2019-03-31T03:46:05.240Z,56.90
2019-03-31T03:48:36.320Z,57.10
2019-03-31T03:51:08.729Z,57.20
2019-03-31T03:53:41.261Z,58.00
2019-03-31T03:56:13.454Z,57.70
2019-03-31T03:58:44.565Z,57.20
2019-03-31T04:01:18.280Z,57.50
2019-03-31T04:03:50.460Z,57.50
2019-03-31T04:06:19.271Z,57.90
2019-03-31T04:08:48.113Z,58.20
2019-03-31T04:11:21.534Z,58.00
2019-03-31T04:13:49.776Z,58.40
2019-03-31T04:16:18.632Z,58.70
2019-03-31T04:18:47.478Z,57.90
2019-03-31T04:21:16.336Z,57.60
2019-03-31T04:23:45.183Z,57.40
2019-03-31T04:26:14.020Z,57.90
2019-03-31T04:28:42.850Z,58.40
2019-03-31T04:31:11.693Z,58.80
2019-03-31T04:33:50.728Z,58.80
2019-03-31T04:36:11.041Z,59.00
2019-03-31T04:38:39.903Z,59.10
2019-03-31T04:41:08.740Z,58.60
2019-03-31T04:43:39.056Z,58.50
2019-03-31T04:46:07.870Z,58.20
2019-03-31T04:48:36.745Z,58.60
2019-03-31T04:51:05.566Z,59.10
2019-03-31T04:53:34.427Z,59.70
2019-03-31T04:56:03.247Z,60.40
2019-03-31T04:58:32.119Z,59.80
2019-03-31T05:01:01.338Z,59.40
2019-03-31T05:03:30.218Z,59.70
2019-03-31T05:05:59.050Z,60.70
2019-03-31T05:08:27.874Z,60.30
2019-03-31T05:10:56.735Z,60.00
2019-03-31T05:13:25.572Z,59.80
2019-03-31T05:15:55.027Z,59.70
2019-03-31T05:18:23.854Z,60.10
2019-03-31T05:20:52.723Z,58.20
2019-03-31T05:23:21.477Z,57.80
2019-03-31T05:25:50.333Z,57.10
2019-03-31T05:28:19.170Z,57.80
2019-03-31T05:30:48.030Z,59.50
2019-03-31T05:33:16.868Z,58.90
2019-03-31T05:35:45.726Z,58.10
2019-03-31T05:38:14.481Z,58.00
2019-03-31T05:40:43.358Z,58.50
2019-03-31T05:43:12.214Z,58.10
2019-03-31T05:45:41.038Z,57.90
2019-03-31T05:48:09.978Z,57.50
2019-03-31T05:50:38.817Z,56.40
2019-03-31T05:53:07.668Z,54.50
2019-03-31T05:55:36.492Z,52.60
2019-03-31T05:58:05.357Z,50.40
2019-03-31T06:00:37.166Z,48.40
2019-03-31T06:03:06.052Z,46.40
2019-03-31T06:05:34.818Z,46.10
2019-03-31T06:08:03.649Z,44.90
2019-03-31T06:10:32.501Z,43.60
2019-03-31T06:13:01.266Z,42.40
2019-03-31T06:15:30.072Z,39.00
2019-03-31T06:17:58.898Z,37.10
2019-03-31T06:20:27.758Z,39.40
2019-03-31T06:22:56.614Z,41.30
2019-03-31T06:25:25.465Z,43.00
2019-03-31T06:27:54.310Z,44.90
2019-03-31T06:30:23.162Z,42.70
2019-03-31T06:32:55.251Z,40.20
2019-03-31T06:35:22.492Z,38.80
2019-03-31T06:37:51.327Z,36.70
2019-03-31T06:40:20.196Z,33.50
2019-03-31T06:42:49.059Z,32.70
2019-03-31T06:45:17.891Z,28.90
2019-03-31T06:47:46.735Z,27.20
2019-03-31T06:50:15.583Z,27.60
2019-03-31T06:52:44.436Z,27.20
2019-03-31T06:55:14.376Z,25.40
2019-03-31T06:57:43.238Z,26.00
2019-03-31T07:00:13.279Z,25.10
2019-03-31T07:02:42.072Z,24.10
2019-03-31T07:05:10.996Z,24.30
2019-03-31T07:07:39.829Z,24.60
2019-03-31T07:10:09.105Z,22.10
2019-03-31T07:12:37.919Z,21.90
2019-03-31T07:15:08.772Z,22.60
2019-03-31T07:17:37.589Z,23.20
2019-03-31T07:20:08.671Z,23.40
2019-03-31T07:22:37.902Z,24.40
2019-03-31T07:25:09.338Z,22.80
2019-03-31T07:27:38.684Z,22.50
2019-03-31T07:30:13.843Z,22.90
2019-03-31T07:32:42.674Z,21.50
2019-03-31T07:35:18.343Z,20.70
2019-03-31T07:37:47.476Z,20.20
2019-03-31T07:40:20.704Z,20.30
2019-03-31T07:42:51.276Z,20.40
2019-03-31T07:45:20.823Z,20.90
2019-03-31T07:47:49.702Z,19.20
2019-03-31T07:50:19.439Z,19.50
2019-03-31T07:52:48.303Z,19.70
2019-03-31T07:55:17.839Z,19.70
2019-03-31T07:57:46.730Z,21.00
2019-03-31T08:00:18.468Z,18.80
2019-03-31T08:02:46.475Z,19.70
2019-03-31T08:05:15.333Z,18.20
2019-03-31T08:07:44.162Z,18.10
2019-03-31T08:10:13.613Z,17.70
2019-03-31T08:12:42.647Z,17.10
2019-03-31T08:15:12.337Z,16.80
2019-03-31T08:17:42.822Z,17.10
2019-03-31T08:20:13.971Z,17.00
2019-03-31T08:22:42.802Z,17.30
2019-03-31T08:25:11.948Z,17.00
2019-03-31T08:27:40.809Z,17.70
2019-03-31T08:30:14.177Z,16.60
2019-03-31T08:32:43.055Z,16.80
2019-03-31T08:35:12.791Z,17.70
2019-03-31T08:37:41.662Z,17.30
2019-03-31T08:40:11.803Z,19.00
2019-03-31T08:42:40.589Z,17.70
2019-03-31T08:45:09.513Z,18.50
2019-03-31T08:47:38.469Z,17.40
2019-03-31T08:50:07.809Z,17.70
2019-03-31T08:52:36.665Z,18.40
2019-03-31T08:55:06.616Z,17.70
2019-03-31T08:57:35.675Z,17.20
2019-03-31T09:00:07.913Z,16.70
2019-03-31T09:02:36.759Z,16.80
2019-03-31T09:05:08.128Z,16.10
2019-03-31T09:07:36.963Z,15.10
2019-03-31T09:10:10.042Z,15.30
2019-03-31T09:12:39.473Z,15.30
2019-03-31T09:15:09.929Z,15.20
2019-03-31T09:17:38.965Z,15.00
2019-03-31T09:20:08.822Z,15.50
2019-03-31T09:22:37.667Z,16.00
2019-03-31T09:25:07.933Z,14.50
2019-03-31T09:27:36.755Z,15.00
2019-03-31T09:30:08.566Z,15.50
2019-03-31T09:32:37.407Z,16.00
2019-03-31T09:35:08.472Z,15.90
2019-03-31T09:37:37.412Z,15.20
2019-03-31T09:40:07.477Z,14.60
2019-03-31T09:42:36.342Z,15.10
2019-03-31T09:45:06.692Z,15.00
2019-03-31T09:47:35.744Z,15.10
2019-03-31T09:50:10.708Z,15.60
2019-03-31T09:52:39.575Z,14.40
2019-03-31T09:55:08.992Z,15.00
2019-03-31T09:57:37.865Z,14.30
2019-03-31T10:00:09.895Z,14.80
2019-03-31T10:02:38.759Z,15.20
2019-03-31T10:05:08.613Z,15.30
2019-03-31T10:07:38.600Z,14.90
2019-03-31T10:10:12.315Z,15.20
2019-03-31T10:12:41.199Z,14.60
2019-03-31T10:15:10.097Z,16.00
2019-03-31T10:17:38.966Z,15.70
2019-03-31T10:20:07.893Z,14.10
2019-03-31T10:22:36.775Z,15.20
2019-03-31T10:25:07.207Z,15.70
2019-03-31T10:27:36.073Z,15.10
2019-03-31T10:30:06.704Z,15.20
2019-03-31T10:32:35.547Z,14.80
2019-03-31T10:35:06.859Z,14.70
2019-03-31T10:37:35.729Z,14.70
2019-03-31T10:40:07.237Z,14.10
2019-03-31T10:42:36.328Z,14.70
2019-03-31T10:45:07.721Z,16.00
2019-03-31T10:47:36.576Z,14.80
2019-03-31T10:50:07.121Z,14.70
2019-03-31T10:52:36.648Z,15.50
2019-03-31T10:55:07.080Z,15.20
2019-03-31T10:57:35.919Z,15.00
2019-03-31T11:00:09.982Z,14.10
2019-03-31T11:02:38.813Z,14.20
2019-03-31T11:05:08.509Z,13.90
2019-03-31T11:07:37.429Z,14.50
2019-03-31T11:10:08.353Z,13.30
2019-03-31T11:12:37.190Z,13.70
2019-03-31T11:15:07.271Z,13.40
2019-03-31T11:17:36.094Z,13.70
2019-03-31T11:20:07.769Z,14.30
2019-03-31T11:22:38.170Z,14.50
2019-03-31T11:25:20.316Z,13.60
2019-03-31T11:27:39.244Z,13.50
2019-03-31T11:30:08.997Z,13.70
2019-03-31T11:32:37.843Z,12.60
2019-03-31T11:35:08.006Z,13.10
2019-03-31T11:37:36.823Z,13.60
2019-03-31T11:40:07.671Z,13.30
2019-03-31T11:42:36.506Z,13.70
2019-03-31T11:45:08.287Z,13.80
2019-03-31T11:47:37.143Z,13.10
2019-03-31T11:50:08.496Z,13.70
2019-03-31T11:52:37.347Z,14.00
2019-03-31T11:55:08.414Z,14.30
2019-03-31T11:57:37.298Z,14.50
2019-03-31T12:00:11.915Z,14.70
2019-03-31T12:02:40.809Z,16.70
2019-03-31T12:05:09.753Z,17.00
2019-03-31T12:07:46.753Z,17.60
2019-03-31T12:10:13.351Z,18.10
2019-03-31T12:12:43.670Z,17.90
2019-03-31T12:15:13.501Z,18.80
2019-03-31T12:17:42.378Z,18.10
2019-03-31T12:20:11.335Z,18.00
2019-03-31T12:22:40.171Z,19.20
2019-03-31T12:25:09.230Z,20.30
2019-03-31T12:27:38.107Z,20.20
2019-03-31T12:30:08.427Z,19.00
2019-03-31T12:32:38.592Z,18.80
2019-03-31T12:35:09.318Z,21.00
2019-03-31T12:37:42.696Z,20.00
2019-03-31T12:40:15.083Z,19.50
2019-03-31T12:42:42.087Z,17.90
2019-03-31T12:45:11.056Z,18.70
2019-03-31T12:47:39.888Z,19.00
2019-03-31T12:50:08.703Z,18.70
2019-03-31T12:52:46.776Z,19.80
2019-03-31T12:55:08.074Z,19.50
2019-03-31T12:57:36.934Z,18.50
2019-03-31T13:00:06.963Z,19.20
2019-03-31T13:02:35.826Z,19.00
2019-03-31T13:05:07.154Z,18.20
2019-03-31T13:07:36.015Z,18.90
2019-03-31T13:10:05.751Z,19.50
2019-03-31T13:12:35.119Z,17.70
2019-03-31T13:15:05.640Z,18.10
2019-03-31T13:17:34.515Z,17.50
2019-03-31T13:20:04.835Z,17.40
2019-03-31T13:22:33.711Z,17.70
2019-03-31T13:25:02.979Z,19.20
2019-03-31T13:27:31.911Z,19.20
2019-03-31T13:30:00.770Z,19.30
2019-03-31T13:32:29.588Z,18.30
2019-03-31T13:34:59.258Z,18.70
2019-03-31T13:37:27.999Z,18.60
2019-03-31T13:39:56.888Z,18.30
2019-03-31T13:42:25.714Z,17.90
2019-03-31T13:44:54.579Z,18.30
2019-03-31T13:47:23.415Z,16.40
2019-03-31T13:49:52.263Z,15.40
2019-03-31T13:52:21.080Z,15.50
2019-03-31T13:54:49.958Z,17.00
2019-03-31T13:57:19.549Z,17.10
2019-03-31T13:59:48.845Z,17.10
2019-03-31T14:02:17.706Z,16.60
2019-03-31T14:04:51.764Z,17.40
2019-03-31T14:07:17.768Z,16.30
2019-03-31T14:09:46.575Z,17.30
2019-03-31T14:12:15.459Z,17.00
2019-03-31T14:14:44.297Z,15.60
2019-03-31T14:17:13.168Z,15.70
2019-03-31T14:19:41.985Z,15.90
2019-03-31T14:22:10.855Z,16.10
2019-03-31T14:24:39.677Z,16.10
2019-03-31T14:27:08.541Z,16.20
2019-03-31T14:29:37.372Z,16.80
2019-03-31T14:32:06.220Z,14.60
2019-03-31T14:34:35.068Z,14.50
2019-03-31T14:37:03.934Z,14.80
2019-03-31T14:39:32.768Z,15.50
2019-03-31T14:42:01.630Z,17.00
2019-03-31T14:44:30.443Z,15.80
2019-03-31T14:46:59.304Z,15.40
2019-03-31T14:49:28.166Z,15.20
2019-03-31T14:51:56.998Z,16.40
2019-03-31T14:54:25.773Z,15.80
2019-03-31T14:56:54.609Z,16.40
2019-03-31T14:59:23.470Z,15.90
2019-03-31T15:01:52.295Z,15.20
2019-03-31T15:04:21.157Z,15.60
2019-03-31T15:06:49.991Z,16.20
2019-03-31T15:09:18.853Z,17.60
2019-03-31T15:11:47.686Z,16.40
2019-03-31T15:14:16.541Z,16.00
2019-03-31T15:16:48.295Z,17.00
2019-03-31T15:19:15.898Z,17.00
2019-03-31T15:21:44.740Z,17.10
2019-03-31T15:24:13.579Z,16.70
2019-03-31T15:26:42.436Z,16.60
2019-03-31T15:29:11.255Z,17.00
2019-03-31T15:31:40.107Z,16.90
2019-03-31T15:34:08.923Z,16.60
2019-03-31T15:36:37.794Z,15.90
2019-03-31T15:39:09.509Z,17.20
2019-03-31T15:41:38.432Z,17.20
2019-03-31T15:44:07.257Z,17.60
2019-03-31T15:46:36.127Z,17.40
2019-03-31T15:49:04.950Z,17.70
2019-03-31T15:51:33.823Z,17.20
2019-03-31T15:54:02.678Z,16.80
2019-03-31T15:56:31.587Z,17.40
2019-03-31T15:59:00.455Z,17.30
2019-03-31T16:01:29.301Z,17.60
2019-03-31T16:03:58.196Z,17.40
2019-03-31T16:06:26.940Z,17.50
2019-03-31T16:08:55.799Z,18.40
2019-03-31T16:11:24.636Z,18.80
2019-03-31T16:13:53.508Z,19.10
2019-03-31T16:16:22.324Z,19.50
2019-03-31T16:18:51.186Z,19.50
2019-03-31T16:21:20.013Z,19.60
2019-03-31T16:23:48.884Z,20.00
2019-03-31T16:26:17.779Z,20.30
2019-03-31T16:28:46.634Z,20.70
2019-03-31T16:31:15.494Z,20.90
2019-03-31T16:33:44.333Z,20.20
2019-03-31T16:36:13.193Z,20.40
2019-03-31T16:38:42.061Z,20.40
2019-03-31T16:41:10.938Z,20.90
2019-03-31T16:43:39.762Z,20.50
2019-03-31T16:46:08.612Z,20.60
2019-03-31T16:48:37.446Z,19.90
2019-03-31T16:51:06.306Z,20.00
2019-03-31T16:53:35.133Z,20.20
2019-03-31T16:56:03.993Z,19.60
2019-03-31T16:58:33.764Z,19.90
2019-03-31T17:01:02.643Z,20.10
2019-03-31T17:03:31.477Z,21.20
2019-03-31T17:06:00.310Z,21.00
2019-03-31T17:08:29.183Z,21.30
2019-03-31T17:10:57.994Z,22.00
2019-03-31T17:13:26.862Z,21.60
2019-03-31T17:15:55.700Z,21.70
2019-03-31T17:18:24.567Z,21.50
2019-03-31T17:20:53.449Z,22.90
2019-03-31T17:23:22.315Z,22.80
2019-03-31T17:25:51.185Z,22.80
2019-03-31T17:28:20.032Z,23.30
2019-03-31T17:30:48.857Z,23.30
2019-03-31T17:33:17.806Z,22.50
2019-03-31T17:35:46.651Z,23.70
2019-03-31T17:38:15.524Z,23.60
2019-03-31T17:40:44.349Z,23.50
2019-03-31T17:43:13.213Z,23.50
2019-03-31T17:45:42.046Z,23.40
2019-03-31T17:48:10.916Z,23.20
2019-03-31T17:50:39.738Z,23.70
2019-03-31T17:53:08.583Z,23.90
2019-03-31T17:55:37.481Z,24.20
2019-03-31T17:58:06.330Z,24.50
2019-03-31T18:00:35.195Z,24.50
2019-03-31T18:03:04.014Z,24.80
2019-03-31T18:05:32.863Z,24.80
2019-03-31T18:08:01.735Z,25.50
2019-03-31T18:10:30.572Z,25.30
2019-03-31T18:12:59.448Z,25.70
2019-03-31T18:15:28.325Z,25.70
2019-03-31T18:17:57.149Z,25.80
2019-03-31T18:20:26.057Z,26.10
2019-03-31T18:22:54.923Z,26.70
2019-03-31T18:25:23.757Z,26.70
2019-03-31T18:27:52.627Z,27.20
2019-03-31T18:30:21.753Z,27.10
2019-03-31T18:32:50.557Z,27.40
2019-03-31T18:35:19.390Z,28.40
2019-03-31T18:37:48.311Z,28.50
2019-03-31T18:40:17.129Z,28.20
2019-03-31T18:42:45.989Z,27.70
2019-03-31T18:45:14.960Z,28.10
2019-03-31T18:47:43.821Z,27.90
2019-03-31T18:50:12.746Z,28.00
2019-03-31T18:52:41.627Z,28.70
2019-03-31T18:55:12.250Z,29.30
2019-03-31T18:57:42.663Z,29.70
2019-03-31T19:00:28.309Z,30.20
2019-03-31T19:03:16.899Z,29.90
2019-03-31T19:05:50.038Z,30.00
2019-03-31T19:08:25.944Z,31.00
2019-03-31T19:10:56.364Z,30.40
2019-03-31T19:13:54.783Z,31.00
2019-03-31T19:16:31.916Z,32.20
2019-03-31T19:19:05.113Z,32.20
2019-03-31T19:21:44.244Z,31.90
2019-03-31T19:24:20.650Z,33.30
2019-03-31T19:27:02.988Z,32.70
2019-03-31T19:29:50.797Z,33.00
2019-03-31T19:32:26.911Z,33.30
2019-03-31T19:34:57.374Z,34.00
2019-03-31T19:37:27.756Z,33.80
2019-03-31T19:40:06.918Z,33.40
2019-03-31T19:42:40.095Z,33.70
2019-03-31T19:45:19.681Z,33.60
2019-03-31T19:47:50.073Z,33.60
2019-03-31T19:50:22.899Z,35.10
2019-03-31T19:52:56.030Z,34.40
2019-03-31T19:55:29.105Z,34.40
2019-03-31T19:58:15.707Z,34.20
2019-03-31T20:00:52.011Z,35.60
2019-03-31T20:03:25.461Z,35.10
2019-03-31T20:05:58.542Z,35.60
2019-03-31T20:08:31.728Z,35.60
2019-03-31T20:11:05.065Z,36.20
2019-03-31T20:13:47.057Z,36.60
2019-03-31T20:16:26.498Z,37.10
2019-03-31T20:19:12.005Z,36.90
2019-03-31T20:21:48.143Z,36.70
2019-03-31T20:24:24.644Z,36.60
2019-03-31T20:27:06.832Z,37.50
2019-03-31T20:29:37.299Z,37.20
2019-03-31T20:32:10.709Z,37.50
2019-03-31T20:34:53.255Z,37.60
2019-03-31T20:37:29.345Z,38.10
2019-03-31T20:40:02.525Z,38.00
2019-03-31T20:42:44.827Z,37.30
2019-03-31T20:45:13.714Z,37.40
2019-03-31T20:47:42.532Z,37.40
2019-03-31T20:50:11.411Z,37.70
2019-03-31T20:52:40.226Z,37.40
2019-03-31T20:55:16.126Z,37.50
2019-03-31T20:57:39.704Z,37.70
2019-03-31T21:00:09.261Z,38.00
2019-03-31T21:02:38.143Z,39.00
2019-03-31T21:05:07.096Z,39.60
2019-03-31T21:07:35.918Z,38.50
2019-03-31T21:10:06.489Z,39.30
2019-03-31T21:12:35.332Z,39.80
2019-03-31T21:15:05.437Z,40.60
2019-03-31T21:17:34.296Z,41.10
2019-03-31T21:20:03.353Z,40.30
2019-03-31T21:22:32.182Z,40.40
2019-03-31T21:25:01.041Z,40.30
2019-03-31T21:27:29.863Z,40.80
2019-03-31T21:29:58.749Z,40.40
2019-03-31T21:32:27.592Z,40.20
2019-03-31T21:34:56.421Z,40.50
2019-03-31T21:37:25.285Z,40.60
2019-03-31T21:39:54.100Z,40.20
2019-03-31T21:42:22.972Z,39.50
2019-03-31T21:44:51.803Z,40.10
2019-03-31T21:47:20.770Z,39.50
2019-03-31T21:49:49.739Z,39.30
2019-03-31T21:52:18.585Z,38.80
2019-03-31T21:54:47.431Z,38.90
2019-03-31T21:57:16.335Z,38.90
2019-03-31T21:59:45.201Z,38.70
2019-03-31T22:02:14.068Z,39.20
2019-03-31T22:04:42.947Z,39.30
2019-03-31T22:07:11.810Z,39.90
2019-03-31T22:09:40.676Z,40.10
2019-03-31T22:12:09.512Z,40.10
2019-03-31T22:14:38.376Z,41.00
2019-03-31T22:17:08.271Z,41.00
2019-03-31T22:19:37.367Z,41.00
2019-03-31T22:22:06.174Z,41.00
2019-03-31T22:24:35.096Z,41.30
2019-03-31T22:27:04.023Z,41.00
2019-03-31T22:29:32.835Z,41.10
2019-03-31T22:32:01.887Z,41.40
2019-03-31T22:34:30.722Z,41.90
2019-03-31T22:36:59.646Z,42.10
2019-03-31T22:39:28.509Z,42.80
2019-03-31T22:41:57.351Z,43.30
2019-03-31T22:44:26.243Z,42.30
2019-03-31T22:46:55.063Z,42.10
2019-03-31T22:49:23.896Z,41.90
2019-03-31T22:51:56.188Z,42.60
2019-03-31T22:54:23.236Z,43.10
2019-03-31T22:56:52.089Z,43.20
2019-03-31T22:59:20.917Z,42.70
2019-03-31T23:01:49.813Z,42.80
2019-03-31T23:04:18.609Z,43.00
2019-03-31T23:06:47.494Z,44.10
2019-03-31T23:09:16.324Z,44.00
2019-03-31T23:11:45.163Z,43.50
2019-03-31T23:14:14.032Z,43.60
2019-03-31T23:16:42.865Z,43.90
2019-03-31T23:19:11.727Z,43.90
2019-03-31T23:22:07.769Z,43.70
2019-03-31T23:24:38.964Z,43.50
2019-03-31T23:27:07.787Z,43.60
2019-03-31T23:29:36.567Z,43.90
2019-03-31T23:32:05.395Z,43.60
2019-03-31T23:34:34.250Z,44.00
2019-03-31T23:37:03.067Z,43.90
2019-03-31T23:39:31.929Z,44.40
2019-03-31T23:42:00.766Z,43.90
2019-03-31T23:44:29.614Z,43.90
2019-03-31T23:46:58.433Z,44.10
2019-03-31T23:49:27.293Z,44.10
2019-03-31T23:51:56.121Z,44.10
2019-03-31T23:54:24.954Z,44.30
2019-03-31T23:56:53.814Z,44.30
2019-03-31T23:59:22.632Z,44.50
